createdAt,value
2019-02-17T00:06:35.064Z,37.53
2019-02-17T00:11:46.353Z,39.08
2019-02-17T00:14:31.109Z,37.33
2019-02-17T00:16:46.031Z,39.65
2019-02-17T00:19:14.732Z,38.05
2019-02-17T00:21:43.562Z,38.33
2019-02-17T00:24:12.454Z,36.15
2019-02-17T00:26:41.098Z,34.43
2019-02-17T00:29:09.718Z,35.15
2019-02-17T00:31:38.328Z,37.20
2019-02-17T00:34:06.950Z,40.88
2019-02-17T00:36:35.554Z,32.65
2019-02-17T00:39:05.458Z,37.42
2019-02-17T00:41:34.163Z,36.35
2019-02-17T00:44:02.742Z,39.38
2019-02-17T00:46:31.431Z,40.60
2019-02-17T00:49:00.149Z,37.25
2019-02-17T00:51:28.804Z,42.40
2019-02-17T00:53:57.508Z,38.98
2019-02-17T00:56:26.207Z,33.83
2019-02-17T00:58:54.829Z,35.58
2019-02-17T01:01:23.475Z,34.90
2019-02-17T01:03:52.084Z,39.60
2019-02-17T01:06:20.705Z,34.92
2019-02-17T01:08:49.366Z,36.20
2019-02-17T01:11:18.013Z,38.08
2019-02-17T01:13:46.687Z,39.10
2019-02-17T01:16:15.331Z,43.55
2019-02-17T01:18:43.955Z,39.92
2019-02-17T01:21:12.577Z,34.10
2019-02-17T01:23:41.186Z,43.63
2019-02-17T01:26:09.835Z,38.00
2019-02-17T01:28:38.457Z,37.88
2019-02-17T01:31:08.482Z,40.00
2019-02-17T01:33:37.432Z,35.17
2019-02-17T01:36:06.061Z,39.85
2019-02-17T01:38:34.677Z,44.53
2019-02-17T01:43:37.750Z,40.30
2019-02-17T01:46:06.388Z,40.65
2019-02-17T01:48:35.002Z,37.75
2019-02-17T01:51:03.619Z,35.65
2019-02-17T01:53:51.278Z,36.17
2019-02-17T01:56:19.888Z,35.83
2019-02-17T01:58:48.531Z,36.20
2019-02-17T02:01:17.331Z,40.65
2019-02-17T02:03:47.493Z,36.35
2019-02-17T02:06:16.121Z,41.92
2019-02-17T02:08:44.764Z,41.90
2019-02-17T02:11:13.391Z,40.65
2019-02-17T02:13:42.040Z,39.60
2019-02-17T02:16:10.679Z,37.63
2019-02-17T02:18:39.349Z,41.00
2019-02-17T02:21:07.989Z,39.83
2019-02-17T02:23:36.624Z,38.50
2019-02-17T02:26:05.245Z,42.17
2019-02-17T02:28:33.886Z,37.85
2019-02-17T02:31:02.493Z,35.65
2019-02-17T02:33:31.129Z,38.70
2019-02-17T02:35:59.756Z,37.80
2019-02-17T02:38:28.390Z,39.30
2019-02-17T02:40:57.024Z,42.08
2019-02-17T02:43:25.649Z,41.92
2019-02-17T02:45:54.309Z,38.45
2019-02-17T02:48:22.921Z,40.48
2019-02-17T02:50:53.126Z,39.63
2019-02-17T02:53:21.918Z,42.03
2019-02-17T02:55:50.567Z,39.38
2019-02-17T02:58:19.183Z,40.40
2019-02-17T03:00:47.804Z,34.03
2019-02-17T03:03:16.488Z,46.45
2019-02-17T03:06:04.191Z,43.60
2019-02-17T03:08:32.804Z,42.05
2019-02-17T03:11:01.426Z,43.20
2019-02-17T03:13:30.138Z,42.62
2019-02-17T03:15:58.774Z,39.85
2019-02-17T03:18:27.387Z,42.70
2019-02-17T03:20:56.037Z,37.10
2019-02-17T03:23:24.693Z,37.85
2019-02-17T03:25:53.332Z,40.90
2019-02-17T03:28:21.927Z,37.98
2019-02-17T03:30:50.564Z,35.13
2019-02-17T03:33:19.214Z,44.18
2019-02-17T03:35:47.863Z,36.58
2019-02-17T03:38:16.485Z,35.95
2019-02-17T03:40:45.150Z,40.08
2019-02-17T03:43:13.850Z,33.95
2019-02-17T03:45:42.502Z,44.25
2019-02-17T03:48:11.135Z,38.10
2019-02-17T03:50:39.750Z,48.35
2019-02-17T03:53:08.396Z,36.77
2019-02-17T03:55:37.007Z,40.40
2019-02-17T03:58:05.726Z,41.53
2019-02-17T04:00:34.345Z,40.58
2019-02-17T04:03:02.979Z,41.85
2019-02-17T04:05:31.617Z,33.13
2019-02-17T04:08:00.259Z,39.63
2019-02-17T04:10:28.889Z,38.92
2019-02-17T04:12:57.518Z,34.58
2019-02-17T04:15:26.210Z,36.85
2019-02-17T04:17:54.854Z,38.30
2019-02-17T04:20:23.488Z,40.15
2019-02-17T04:22:52.114Z,47.43
2019-02-17T04:25:20.738Z,34.65
2019-02-17T04:27:49.389Z,37.73
2019-02-17T04:30:28.581Z,35.17
2019-02-17T04:32:48.356Z,34.63
2019-02-17T04:35:16.988Z,36.33
2019-02-17T04:37:45.632Z,38.00
2019-02-17T04:40:14.249Z,41.18
2019-02-17T04:42:42.909Z,36.50
2019-02-17T04:45:11.544Z,36.30
2019-02-17T04:47:40.245Z,33.25
2019-02-17T04:50:08.970Z,33.58
2019-02-17T04:52:37.676Z,36.03
2019-02-17T04:55:06.733Z,33.00
2019-02-17T04:57:35.354Z,35.17
2019-02-17T05:00:04.117Z,41.90
2019-02-17T05:02:32.731Z,35.30
2019-02-17T05:05:01.435Z,41.00
2019-02-17T05:07:30.085Z,34.92
2019-02-17T05:09:58.719Z,37.08
2019-02-17T05:12:27.338Z,36.77
2019-02-17T05:14:55.973Z,35.80
2019-02-17T05:17:24.616Z,35.73
2019-02-17T05:19:53.278Z,35.05
2019-02-17T05:22:21.901Z,36.50
2019-02-17T05:24:50.543Z,30.05
2019-02-17T05:27:19.170Z,37.38
2019-02-17T05:29:47.809Z,34.33
2019-02-17T05:32:16.435Z,31.97
2019-02-17T05:34:45.057Z,35.58
2019-02-17T05:37:13.699Z,38.10
2019-02-17T05:39:42.358Z,40.12
2019-02-17T05:42:10.993Z,31.35
2019-02-17T05:44:39.633Z,40.95
2019-02-17T05:47:08.258Z,36.45
2019-02-17T05:49:36.878Z,35.10
2019-02-17T05:52:05.515Z,41.15
2019-02-17T05:54:34.194Z,34.23
2019-02-17T05:57:02.955Z,34.10
2019-02-17T05:59:31.675Z,32.83
2019-02-17T06:02:00.290Z,40.38
2019-02-17T06:04:28.908Z,35.30
2019-02-17T06:06:57.548Z,33.75
2019-02-17T06:09:26.161Z,41.10
2019-02-17T06:11:54.816Z,35.98
2019-02-17T06:14:23.439Z,38.10
2019-02-17T06:16:52.087Z,38.58
2019-02-17T06:19:20.804Z,31.80
2019-02-17T06:21:49.386Z,32.80
2019-02-17T06:24:18.011Z,37.65
2019-02-17T06:26:46.699Z,41.95
2019-02-17T06:29:15.308Z,34.08
2019-02-17T06:31:43.944Z,34.27
2019-02-17T06:34:12.614Z,30.68
2019-02-17T06:36:41.375Z,31.87
2019-02-17T06:39:09.994Z,35.63
2019-02-17T06:41:38.640Z,30.05
2019-02-17T06:44:07.265Z,32.95
2019-02-17T06:46:40.500Z,33.38
2019-02-17T06:49:09.144Z,34.75
2019-02-17T06:51:37.779Z,32.67
2019-02-17T06:54:06.472Z,31.62
2019-02-17T06:56:54.101Z,34.95
2019-02-17T06:59:22.727Z,32.25
2019-02-17T07:01:51.358Z,34.10
2019-02-17T07:07:09.472Z,32.28
2019-02-17T07:09:38.084Z,37.90
2019-02-17T07:12:06.749Z,31.05
2019-02-17T07:14:35.356Z,32.67
2019-02-17T07:17:04.040Z,31.68
2019-02-17T07:19:32.689Z,31.62
2019-02-17T07:22:01.340Z,40.38
2019-02-17T07:24:29.966Z,26.95
2019-02-17T07:26:58.593Z,31.07
2019-02-17T07:29:27.219Z,32.75
2019-02-17T07:31:55.889Z,33.42
2019-02-17T07:34:24.506Z,31.90
2019-02-17T07:36:53.133Z,27.87
2019-02-17T07:39:21.808Z,33.20
2019-02-17T07:41:50.451Z,32.40
2019-02-17T07:44:19.112Z,29.60
2019-02-17T07:46:47.768Z,30.65
2019-02-17T07:49:16.701Z,28.83
2019-02-17T07:51:45.396Z,34.48
2019-02-17T07:57:37.373Z,35.30
2019-02-17T08:00:08.630Z,30.40
2019-02-17T08:02:38.019Z,29.25
2019-02-17T08:05:06.762Z,34.60
2019-02-17T08:07:35.424Z,31.70
2019-02-17T08:10:04.453Z,30.20
2019-02-17T08:12:33.116Z,28.85
2019-02-17T08:15:01.773Z,39.23
2019-02-17T08:17:30.408Z,45.50
2019-02-17T08:19:59.070Z,40.78
2019-02-17T08:22:27.735Z,37.40
2019-02-17T08:24:56.446Z,33.90
2019-02-17T08:27:25.085Z,30.68
2019-02-17T08:29:53.880Z,30.92
2019-02-17T08:32:22.876Z,33.53
2019-02-17T08:34:53.163Z,37.50
2019-02-17T08:37:21.917Z,34.05
2019-02-17T08:39:50.796Z,34.40
2019-02-17T08:42:19.433Z,32.25
2019-02-17T08:44:48.052Z,32.53
2019-02-17T08:47:16.713Z,37.78
2019-02-17T08:49:45.336Z,38.65
2019-02-17T08:52:14.001Z,29.00
2019-02-17T08:54:42.665Z,39.25
2019-02-17T08:57:11.366Z,36.85
2019-02-17T08:59:39.978Z,34.43
2019-02-17T09:02:08.605Z,35.03
2019-02-17T09:04:37.218Z,40.95
2019-02-17T09:07:06.530Z,38.02
2019-02-17T09:09:36.191Z,35.03
2019-02-17T09:12:04.917Z,35.25
2019-02-17T09:14:33.525Z,37.35
2019-02-17T09:17:02.221Z,33.48
2019-02-17T09:19:30.830Z,38.50
2019-02-17T09:21:59.489Z,35.90
2019-02-17T09:24:28.109Z,33.05
2019-02-17T09:26:56.793Z,35.35
2019-02-17T09:29:25.430Z,36.25
2019-02-17T09:31:54.069Z,35.78
2019-02-17T09:34:22.727Z,36.77
2019-02-17T09:36:51.504Z,35.38
2019-02-17T09:39:20.152Z,35.00
2019-02-17T09:41:48.840Z,59.45
2019-02-17T09:44:17.456Z,42.70
2019-02-17T09:46:46.088Z,35.78
2019-02-17T09:49:14.727Z,41.73
2019-02-17T09:51:43.435Z,34.18
2019-02-17T09:54:12.055Z,37.45
2019-02-17T09:56:40.678Z,35.83
2019-02-17T09:59:09.351Z,36.45
2019-02-17T10:01:38.096Z,37.60
2019-02-17T10:04:06.729Z,33.15
2019-02-17T10:06:35.491Z,33.20
2019-02-17T10:09:05.354Z,37.33
2019-02-17T10:11:33.976Z,37.65
2019-02-17T10:14:02.931Z,37.70
2019-02-17T10:16:31.817Z,30.82
2019-02-17T10:19:00.577Z,40.60
2019-02-17T10:21:29.262Z,49.27
2019-02-17T10:23:57.898Z,34.35
2019-02-17T10:26:26.626Z,39.23
2019-02-17T10:28:55.281Z,32.08
2019-02-17T10:34:12.525Z,36.28
2019-02-17T10:36:41.308Z,33.02
2019-02-17T10:39:10.018Z,33.85
2019-02-17T10:41:38.647Z,34.95
2019-02-17T10:44:07.287Z,30.82
2019-02-17T10:46:35.904Z,34.50
2019-02-17T10:49:04.610Z,35.43
2019-02-17T10:51:33.276Z,31.45
2019-02-17T10:54:01.907Z,33.08
2019-02-17T10:56:30.601Z,34.05
2019-02-17T10:58:59.258Z,36.90
2019-02-17T11:01:27.945Z,33.02
2019-02-17T11:04:40.197Z,32.83
2019-02-17T11:07:08.810Z,32.93
2019-02-17T11:09:37.439Z,34.48
2019-02-17T11:12:06.149Z,35.20
2019-02-17T11:14:34.801Z,32.67
2019-02-17T11:17:03.454Z,31.95
2019-02-17T11:19:32.100Z,35.85
2019-02-17T11:22:00.712Z,32.45
2019-02-17T11:24:29.342Z,31.97
2019-02-17T11:26:57.959Z,35.75
2019-02-17T11:29:26.624Z,35.75
2019-02-17T11:31:55.276Z,36.15
2019-02-17T11:34:23.972Z,32.58
2019-02-17T11:36:52.597Z,33.70
2019-02-17T11:39:21.557Z,33.15
2019-02-17T11:41:50.253Z,34.35
2019-02-17T11:44:19.011Z,31.93
2019-02-17T11:46:47.629Z,26.75
2019-02-17T11:49:16.263Z,26.70
2019-02-17T11:51:44.893Z,28.30
2019-02-17T11:54:13.602Z,28.83
2019-02-17T11:56:42.313Z,27.45
2019-02-17T11:59:10.936Z,27.58
2019-02-17T12:01:39.643Z,27.73
2019-02-17T12:04:08.373Z,27.77
2019-02-17T12:06:37.011Z,30.40
2019-02-17T12:09:45.770Z,26.83
2019-02-17T12:12:14.914Z,23.35
2019-02-17T12:14:43.545Z,24.47
2019-02-17T12:17:12.219Z,25.15
2019-02-17T12:19:40.854Z,23.75
2019-02-17T12:22:28.690Z,25.88
2019-02-17T12:25:16.338Z,23.65
2019-02-17T12:28:03.999Z,22.85
2019-02-17T12:30:32.654Z,24.10
2019-02-17T12:33:01.275Z,22.07
2019-02-17T12:35:29.907Z,21.50
2019-02-17T12:37:58.521Z,25.05
2019-02-17T12:40:27.165Z,30.05
2019-02-17T12:42:55.814Z,27.20
2019-02-17T12:45:24.472Z,28.87
2019-02-17T12:47:57.911Z,28.03
2019-02-17T12:50:23.593Z,24.77
2019-02-17T12:52:52.213Z,28.40
2019-02-17T12:55:20.915Z,29.80
2019-02-17T12:57:49.533Z,24.63
2019-02-17T13:00:18.491Z,30.83
2019-02-17T13:02:47.158Z,26.00
2019-02-17T13:05:15.844Z,25.00
2019-02-17T13:07:44.482Z,28.40
2019-02-17T13:10:13.443Z,27.13
2019-02-17T13:12:42.361Z,29.70
2019-02-17T13:15:11.525Z,24.70
2019-02-17T13:17:40.124Z,22.90
2019-02-17T13:20:10.472Z,27.40
2019-02-17T13:22:58.164Z,27.10
2019-02-17T13:25:26.783Z,26.20
2019-02-17T13:27:55.415Z,28.20
2019-02-17T13:30:24.181Z,29.10
2019-02-17T13:32:52.889Z,23.67
2019-02-17T13:35:21.640Z,25.20
2019-02-17T13:37:50.311Z,23.70
2019-02-17T13:40:19.024Z,29.37
2019-02-17T13:42:47.884Z,27.53
2019-02-17T13:45:16.683Z,24.90
2019-02-17T13:47:45.725Z,26.43
2019-02-17T13:50:14.450Z,24.20
2019-02-17T13:52:43.209Z,26.33
2019-02-17T13:55:11.940Z,25.10
2019-02-17T13:57:40.694Z,23.70
2019-02-17T14:00:28.567Z,25.87
2019-02-17T14:02:57.200Z,23.60
2019-02-17T14:05:25.986Z,28.43
2019-02-17T14:07:54.624Z,23.80
2019-02-17T14:10:23.263Z,26.47
2019-02-17T14:12:51.891Z,22.97
2019-02-17T14:15:20.520Z,26.30
2019-02-17T14:17:49.251Z,23.10
2019-02-17T14:20:17.935Z,24.87
2019-02-17T14:22:46.577Z,26.07
2019-02-17T14:25:15.271Z,25.20
2019-02-17T14:27:43.971Z,23.00
2019-02-17T14:30:12.819Z,23.67
2019-02-17T14:32:41.527Z,22.13
2019-02-17T14:35:10.271Z,25.10
2019-02-17T14:37:38.985Z,24.13
2019-02-17T14:40:26.844Z,23.77
2019-02-17T14:42:55.572Z,26.37
2019-02-17T14:45:24.268Z,24.93
2019-02-17T14:47:52.927Z,25.27
2019-02-17T14:50:21.590Z,25.10
2019-02-17T14:52:50.237Z,20.70
2019-02-17T14:55:18.849Z,24.00
2019-02-17T14:57:47.491Z,22.20
2019-02-17T15:00:16.198Z,22.40
2019-02-17T15:02:44.906Z,23.20
2019-02-17T15:05:13.686Z,24.10
2019-02-17T15:07:42.389Z,25.77
2019-02-17T15:10:11.098Z,23.10
2019-02-17T15:12:39.747Z,24.23
2019-02-17T15:15:09.182Z,24.10
2019-02-17T15:17:37.803Z,26.70
2019-02-17T15:20:08.565Z,21.30
2019-02-17T15:22:37.188Z,27.57
2019-02-17T15:25:07.494Z,21.70
2019-02-17T15:27:37.179Z,25.17
2019-02-17T15:30:06.870Z,21.33
2019-02-17T15:32:35.484Z,22.33
2019-02-17T15:35:04.477Z,23.40
2019-02-17T15:37:33.173Z,23.20
2019-02-17T15:40:09.760Z,24.77
2019-02-17T15:42:38.398Z,27.93
2019-02-17T15:45:08.414Z,23.13
2019-02-17T15:47:37.050Z,27.47
2019-02-17T15:50:06.524Z,26.07
2019-02-17T15:52:35.139Z,27.53
2019-02-17T15:55:03.875Z,28.57
2019-02-17T15:57:32.502Z,24.70
2019-02-17T16:00:01.195Z,24.77
2019-02-17T16:02:29.821Z,25.57
2019-02-17T16:04:58.456Z,25.57
2019-02-17T16:07:27.074Z,23.80
2019-02-17T16:09:55.833Z,26.30
2019-02-17T16:12:24.509Z,26.30
2019-02-17T16:14:53.208Z,25.70
2019-02-17T16:17:21.903Z,23.93
2019-02-17T16:19:50.591Z,27.00
2019-02-17T16:22:19.220Z,23.87
2019-02-17T16:24:47.843Z,29.17
2019-02-17T16:27:16.513Z,27.60
2019-02-17T16:29:45.149Z,26.63
2019-02-17T16:32:13.830Z,23.63
2019-02-17T16:34:42.576Z,24.20
2019-02-17T16:37:11.193Z,28.70
2019-02-17T16:39:39.824Z,21.90
2019-02-17T16:42:08.474Z,26.80
2019-02-17T16:44:37.286Z,23.33
2019-02-17T16:47:05.908Z,24.77
2019-02-17T16:49:34.552Z,24.10
2019-02-17T16:52:03.172Z,25.20
2019-02-17T16:54:31.821Z,26.27
2019-02-17T16:57:00.461Z,28.70
2019-02-17T16:59:29.094Z,36.07
2019-02-17T17:01:57.735Z,31.87
2019-02-17T17:04:26.360Z,32.13
2019-02-17T17:06:55.081Z,36.03
2019-02-17T17:09:23.709Z,33.07
2019-02-17T17:11:52.329Z,37.03
2019-02-17T17:14:21.052Z,36.40
2019-02-17T17:16:49.658Z,36.63
2019-02-17T17:19:18.285Z,30.77
2019-02-17T17:21:47.040Z,29.87
2019-02-17T17:27:23.652Z,25.60
2019-02-17T17:33:22.708Z,32.00
2019-02-17T17:35:51.353Z,28.70
2019-02-17T17:38:20.497Z,29.37
2019-02-17T17:40:49.353Z,34.00
2019-02-17T17:43:18.361Z,36.53
2019-02-17T17:51:42.304Z,29.15
2019-02-17T17:54:11.095Z,32.73
2019-02-17T17:56:59.116Z,27.85
2019-02-17T17:59:27.900Z,24.85
2019-02-17T18:01:56.765Z,30.57
2019-02-17T18:04:25.476Z,27.15
2019-02-17T18:06:54.234Z,25.60
2019-02-17T18:09:23.051Z,24.20
2019-02-17T18:11:51.764Z,23.22
2019-02-17T18:14:20.608Z,26.85
2019-02-17T18:16:49.313Z,22.60
2019-02-17T18:19:18.136Z,25.15
2019-02-17T18:21:49.573Z,25.90
2019-02-17T18:24:18.554Z,25.55
2019-02-17T18:29:22.867Z,24.65
2019-02-17T18:31:51.593Z,17.90
2019-02-17T18:37:14.554Z,22.75
2019-02-17T18:39:43.301Z,23.90
2019-02-17T18:42:12.124Z,21.10
2019-02-17T18:44:41.068Z,21.25
2019-02-17T18:47:10.014Z,20.88
2019-02-17T18:49:39.128Z,22.35
2019-02-17T18:52:08.210Z,20.52
2019-02-17T18:54:39.354Z,21.33
2019-02-17T18:57:08.784Z,20.68
2019-02-17T18:59:37.612Z,25.35
2019-02-17T19:02:47.183Z,19.73
2019-02-17T19:05:15.955Z,20.05
2019-02-17T19:07:44.663Z,20.15
2019-02-17T19:10:13.519Z,19.62
2019-02-17T19:12:42.302Z,17.12
2019-02-17T19:15:12.413Z,22.55
2019-02-17T19:17:41.123Z,16.93
2019-02-17T19:20:12.025Z,18.27
2019-02-17T19:22:40.811Z,22.45
2019-02-17T19:25:09.758Z,21.07
2019-02-17T19:27:38.605Z,24.82
2019-02-17T19:30:26.589Z,19.45
2019-02-17T19:32:55.463Z,20.02
2019-02-17T19:35:24.222Z,22.42
2019-02-17T19:38:32.896Z,23.55
2019-02-17T19:44:21.313Z,19.77
2019-02-17T19:49:52.642Z,18.17
2019-02-17T19:52:40.854Z,20.82
2019-02-17T19:55:10.114Z,22.45
2019-02-17T19:57:38.825Z,25.90
2019-02-17T20:00:10.767Z,23.20
2019-02-17T20:05:52.066Z,26.23
2019-02-17T20:08:17.537Z,25.20
2019-02-17T20:10:48.332Z,23.47
2019-02-17T20:13:19.180Z,24.87
2019-02-17T20:15:47.982Z,23.65
2019-02-17T20:18:16.764Z,28.32
2019-02-17T20:20:45.518Z,21.80
2019-02-17T20:23:14.326Z,28.77
2019-02-17T20:25:43.129Z,26.95
2019-02-17T20:31:21.980Z,27.85
2019-02-17T20:33:50.567Z,26.25
2019-02-17T20:36:20.069Z,25.82
2019-02-17T20:38:48.729Z,27.15
2019-02-17T20:41:17.566Z,23.30
2019-02-17T20:43:46.285Z,21.70
2019-02-17T20:46:15.033Z,19.25
2019-02-17T20:49:13.177Z,20.30
2019-02-17T20:54:37.916Z,23.12
2019-02-17T20:57:07.521Z,17.87
2019-02-17T21:00:32.131Z,19.98
2019-02-17T21:02:47.205Z,22.22
2019-02-17T21:10:45.690Z,23.35
2019-02-17T21:13:15.031Z,20.90
2019-02-17T21:15:43.827Z,21.35
2019-02-17T21:18:31.707Z,22.73
2019-02-17T21:21:00.484Z,20.25
2019-02-17T21:23:29.242Z,23.65
2019-02-17T21:25:57.955Z,23.62
2019-02-17T21:28:26.817Z,25.17
2019-02-17T21:31:14.755Z,24.12
2019-02-17T21:33:43.998Z,26.02
2019-02-17T21:36:22.556Z,24.27
2019-02-17T21:38:43.235Z,21.65
2019-02-17T21:43:46.542Z,27.77
2019-02-17T21:46:15.237Z,23.45
2019-02-17T21:48:43.944Z,24.25
2019-02-17T21:51:12.699Z,23.07
2019-02-17T21:53:41.446Z,22.37
2019-02-17T21:56:10.190Z,23.27
2019-02-17T21:58:38.988Z,21.02
2019-02-17T22:03:55.466Z,20.15
2019-02-17T22:06:33.271Z,24.05
2019-02-17T22:08:54.697Z,23.52
2019-02-17T22:11:23.492Z,24.15
2019-02-17T22:13:52.239Z,27.30
2019-02-17T22:16:20.973Z,29.12
2019-02-17T22:18:49.781Z,27.32
2019-02-17T22:21:20.681Z,25.88
2019-02-17T22:24:08.524Z,24.70
2019-02-17T22:26:37.260Z,30.72
2019-02-17T22:29:06.082Z,24.65
2019-02-17T22:31:53.763Z,27.70
2019-02-17T22:34:22.894Z,31.35
2019-02-17T22:39:43.228Z,26.50
2019-02-17T22:42:11.972Z,34.73
2019-02-17T22:44:40.711Z,28.15
2019-02-17T22:47:09.540Z,25.57
2019-02-17T22:49:38.333Z,27.07
2019-02-17T22:52:07.096Z,27.60
2019-02-17T22:54:37.929Z,29.15
2019-02-17T22:57:07.464Z,28.38
2019-02-17T22:59:36.158Z,25.92
2019-02-17T23:07:50.976Z,29.75
2019-02-17T23:12:54.839Z,28.73
2019-02-17T23:15:23.645Z,33.30
2019-02-17T23:17:52.690Z,32.83
2019-02-17T23:20:24.471Z,30.00
2019-02-17T23:22:53.218Z,29.23
2019-02-17T23:25:24.460Z,30.45
2019-02-17T23:27:53.169Z,28.57
2019-02-17T23:30:21.874Z,32.08
2019-02-17T23:32:50.636Z,28.80
2019-02-17T23:35:19.335Z,30.08
2019-02-17T23:37:48.448Z,32.17
2019-02-17T23:40:17.232Z,32.48
2019-02-17T23:42:53.737Z,28.32
2019-02-17T23:45:22.564Z,33.20
2019-02-17T23:47:51.322Z,30.43
2019-02-17T23:50:20.116Z,36.15
2019-02-17T23:52:48.881Z,28.50
2019-02-17T23:55:17.585Z,29.65
2019-02-17T23:57:46.255Z,31.05
